sensor_id;sensor_type;location;lat;lon;timestamp;P1;durP1;ratioP1;P2;durP2;ratioP2
81950;SDS011;71452;52.562;5.642;2023-10-08T00:01:08;8.20;;;2.38;;
81950;SDS011;71452;52.562;5.642;2023-10-08T00:03:39;4.20;;;1.85;;
81950;SDS011;71452;52.562;5.642;2023-10-08T00:06:14;13.07;;;3.00;;
81950;SDS011;71452;52.562;5.642;2023-10-08T00:08:45;7.88;;;2.40;;
81950;SDS011;71452;52.562;5.642;2023-10-08T00:11:17;4.95;;;2.17;;
81950;SDS011;71452;52.562;5.642;2023-10-08T00:13:48;10.45;;;2.28;;
81950;SDS011;71452;52.562;5.642;2023-10-08T00:16:21;7.45;;;2.58;;
81950;SDS011;71452;52.562;5.642;2023-10-08T00:18:53;9.38;;;2.60;;
81950;SDS011;71452;52.562;5.642;2023-10-08T00:21:25;12.07;;;2.97;;
81950;SDS011;71452;52.562;5.642;2023-10-08T00:23:55;11.18;;;2.50;;
81950;SDS011;71452;52.562;5.642;2023-10-08T00:26:28;7.82;;;2.50;;
81950;SDS011;71452;52.562;5.642;2023-10-08T00:28:58;9.20;;;2.53;;
81950;SDS011;71452;52.562;5.642;2023-10-08T00:31:32;9.98;;;2.83;;
81950;SDS011;71452;52.562;5.642;2023-10-08T00:34:03;8.10;;;2.97;;
81950;SDS011;71452;52.562;5.642;2023-10-08T00:36:37;8.70;;;3.13;;
81950;SDS011;71452;52.562;5.642;2023-10-08T00:39:07;8.00;;;2.63;;
81950;SDS011;71452;52.562;5.642;2023-10-08T00:41:42;7.40;;;2.38;;
81950;SDS011;71452;52.562;5.642;2023-10-08T00:44:13;5.57;;;2.10;;
81950;SDS011;71452;52.562;5.642;2023-10-08T00:46:48;5.88;;;2.45;;
81950;SDS011;71452;52.562;5.642;2023-10-08T00:49:20;5.88;;;1.92;;
81950;SDS011;71452;52.562;5.642;2023-10-08T00:52:06;7.32;;;2.35;;
81950;SDS011;71452;52.562;5.642;2023-10-08T00:54:50;6.93;;;2.70;;
81950;SDS011;71452;52.562;5.642;2023-10-08T00:57:34;10.02;;;2.42;;
81950;SDS011;71452;52.562;5.642;2023-10-08T01:00:09;11.32;;;2.50;;
81950;SDS011;71452;52.562;5.642;2023-10-08T01:02:47;7.90;;;2.05;;
81950;SDS011;71452;52.562;5.642;2023-10-08T01:05:25;9.25;;;2.22;;
81950;SDS011;71452;52.562;5.642;2023-10-08T01:08:08;7.70;;;2.65;;
81950;SDS011;71452;52.562;5.642;2023-10-08T01:10:38;5.30;;;2.05;;
81950;SDS011;71452;52.562;5.642;2023-10-08T01:13:11;7.50;;;2.65;;
81950;SDS011;71452;52.562;5.642;2023-10-08T01:15:46;6.57;;;2.65;;
81950;SDS011;71452;52.562;5.642;2023-10-08T01:18:16;6.85;;;1.92;;
81950;SDS011;71452;52.562;5.642;2023-10-08T01:20:55;5.13;;;1.80;;
81950;SDS011;71452;52.562;5.642;2023-10-08T01:23:34;2.40;;;1.27;;
81950;SDS011;71452;52.562;5.642;2023-10-08T01:26:04;2.97;;;0.95;;
81950;SDS011;71452;52.562;5.642;2023-10-08T01:28:40;1.65;;;0.77;;
81950;SDS011;71452;52.562;5.642;2023-10-08T01:31:09;3.67;;;0.80;;
81950;SDS011;71452;52.562;5.642;2023-10-08T01:33:41;3.63;;;0.75;;
81950;SDS011;71452;52.562;5.642;2023-10-08T01:36:16;1.52;;;0.70;;
81950;SDS011;71452;52.562;5.642;2023-10-08T01:38:47;0.55;;;0.28;;
81950;SDS011;71452;52.562;5.642;2023-10-08T01:41:16;1.10;;;0.40;;
81950;SDS011;71452;52.562;5.642;2023-10-08T01:43:55;0.93;;;0.35;;
81950;SDS011;71452;52.562;5.642;2023-10-08T01:46:26;0.90;;;0.40;;
81950;SDS011;71452;52.562;5.642;2023-10-08T01:48:57;1.30;;;0.35;;
81950;SDS011;71452;52.562;5.642;2023-10-08T01:51:30;0.77;;;0.50;;
81950;SDS011;71452;52.562;5.642;2023-10-08T01:54:14;0.43;;;0.13;;
81950;SDS011;71452;52.562;5.642;2023-10-08T01:56:46;2.03;;;0.63;;
81950;SDS011;71452;52.562;5.642;2023-10-08T01:59:15;1.73;;;0.60;;
81950;SDS011;71452;52.562;5.642;2023-10-08T02:01:44;1.42;;;0.80;;
81950;SDS011;71452;52.562;5.642;2023-10-08T02:04:13;1.77;;;0.30;;
81950;SDS011;71452;52.562;5.642;2023-10-08T02:06:42;2.08;;;0.70;;
81950;SDS011;71452;52.562;5.642;2023-10-08T02:09:11;1.80;;;0.90;;
81950;SDS011;71452;52.562;5.642;2023-10-08T02:11:51;1.70;;;0.60;;
81950;SDS011;71452;52.562;5.642;2023-10-08T02:14:22;2.45;;;0.95;;
81950;SDS011;71452;52.562;5.642;2023-10-08T02:16:56;2.50;;;0.47;;
81950;SDS011;71452;52.562;5.642;2023-10-08T02:19:29;0.98;;;0.50;;
81950;SDS011;71452;52.562;5.642;2023-10-08T02:21:58;2.58;;;0.40;;
81950;SDS011;71452;52.562;5.642;2023-10-08T02:24:30;1.65;;;0.75;;
81950;SDS011;71452;52.562;5.642;2023-10-08T02:26:59;0.98;;;0.30;;
81950;SDS011;71452;52.562;5.642;2023-10-08T02:29:30;1.20;;;0.43;;
81950;SDS011;71452;52.562;5.642;2023-10-08T02:31:59;1.00;;;0.40;;
81950;SDS011;71452;52.562;5.642;2023-10-08T02:34:31;0.77;;;0.40;;
81950;SDS011;71452;52.562;5.642;2023-10-08T02:37:01;0.82;;;0.10;;
81950;SDS011;71452;52.562;5.642;2023-10-08T02:39:33;1.88;;;0.22;;
81950;SDS011;71452;52.562;5.642;2023-10-08T02:42:06;0.70;;;0.25;;
81950;SDS011;71452;52.562;5.642;2023-10-08T02:44:36;0.60;;;0.35;;
81950;SDS011;71452;52.562;5.642;2023-10-08T02:47:07;0.22;;;0.05;;
81950;SDS011;71452;52.562;5.642;2023-10-08T02:49:37;0.40;;;0.20;;
81950;SDS011;71452;52.562;5.642;2023-10-08T02:52:08;0.17;;;0.10;;
81950;SDS011;71452;52.562;5.642;2023-10-08T02:54:41;0.30;;;0.13;;
81950;SDS011;71452;52.562;5.642;2023-10-08T02:57:10;0.03;;;0.03;;
81950;SDS011;71452;52.562;5.642;2023-10-08T02:59:42;0.05;;;0.00;;
81950;SDS011;71452;52.562;5.642;2023-10-08T03:02:12;0.22;;;0.10;;
81950;SDS011;71452;52.562;5.642;2023-10-08T03:04:44;3.33;;;0.15;;
81950;SDS011;71452;52.562;5.642;2023-10-08T03:07:16;0.30;;;0.05;;
81950;SDS011;71452;52.562;5.642;2023-10-08T03:10:01;1.98;;;0.10;;
81950;SDS011;71452;52.562;5.642;2023-10-08T03:12:44;0.10;;;0.03;;
81950;SDS011;71452;52.562;5.642;2023-10-08T03:15:16;0.05;;;0.00;;
81950;SDS011;71452;52.562;5.642;2023-10-08T03:17:54;0.22;;;0.10;;
81950;SDS011;71452;52.562;5.642;2023-10-08T03:20:34;0.13;;;0.10;;
81950;SDS011;71452;52.562;5.642;2023-10-08T03:23:08;5.68;;;0.20;;
81950;SDS011;71452;52.562;5.642;2023-10-08T03:25:54;0.20;;;0.08;;
81950;SDS011;71452;52.562;5.642;2023-10-08T03:28:26;0.13;;;0.10;;
81950;SDS011;71452;52.562;5.642;2023-10-08T03:31:00;0.88;;;0.30;;
81950;SDS011;71452;52.562;5.642;2023-10-08T03:33:40;0.10;;;0.00;;
81950;SDS011;71452;52.562;5.642;2023-10-08T03:36:14;0.13;;;0.10;;
81950;SDS011;71452;52.562;5.642;2023-10-08T03:38:59;0.20;;;0.20;;
81950;SDS011;71452;52.562;5.642;2023-10-08T03:41:39;0.40;;;0.10;;
81950;SDS011;71452;52.562;5.642;2023-10-08T03:44:17;0.00;;;0.00;;
81950;SDS011;71452;52.562;5.642;2023-10-08T03:46:50;0.70;;;0.20;;
81950;SDS011;71452;52.562;5.642;2023-10-08T03:49:22;0.90;;;0.30;;
81950;SDS011;71452;52.562;5.642;2023-10-08T03:51:57;0.43;;;0.30;;
81950;SDS011;71452;52.562;5.642;2023-10-08T03:54:26;0.47;;;0.22;;
81950;SDS011;71452;52.562;5.642;2023-10-08T03:57:03;0.47;;;0.30;;
81950;SDS011;71452;52.562;5.642;2023-10-08T03:59:39;2.10;;;0.50;;
81950;SDS011;71452;52.562;5.642;2023-10-08T04:02:08;2.72;;;0.43;;
81950;SDS011;71452;52.562;5.642;2023-10-08T04:04:39;0.85;;;0.38;;
81950;SDS011;71452;52.562;5.642;2023-10-08T04:07:17;1.77;;;1.27;;
81950;SDS011;71452;52.562;5.642;2023-10-08T04:10:27;0.35;;;0.20;;
81950;SDS011;71452;52.562;5.642;2023-10-08T04:13:36;0.95;;;0.30;;
81950;SDS011;71452;52.562;5.642;2023-10-08T04:16:14;0.80;;;0.47;;
81950;SDS011;71452;52.562;5.642;2023-10-08T04:18:45;1.85;;;0.40;;
81950;SDS011;71452;52.562;5.642;2023-10-08T04:21:17;0.45;;;0.22;;
81950;SDS011;71452;52.562;5.642;2023-10-08T04:23:46;0.50;;;0.40;;
81950;SDS011;71452;52.562;5.642;2023-10-08T04:26:18;0.30;;;0.20;;
81950;SDS011;71452;52.562;5.642;2023-10-08T04:28:52;1.30;;;0.30;;
81950;SDS011;71452;52.562;5.642;2023-10-08T04:31:23;0.28;;;0.10;;
81950;SDS011;71452;52.562;5.642;2023-10-08T04:33:54;1.35;;;0.30;;
81950;SDS011;71452;52.562;5.642;2023-10-08T04:36:26;0.47;;;0.20;;
81950;SDS011;71452;52.562;5.642;2023-10-08T04:38:58;0.52;;;0.13;;
81950;SDS011;71452;52.562;5.642;2023-10-08T04:41:39;0.50;;;0.10;;
81950;SDS011;71452;52.562;5.642;2023-10-08T04:44:11;2.45;;;0.20;;
81950;SDS011;71452;52.562;5.642;2023-10-08T04:46:42;0.25;;;0.22;;
81950;SDS011;71452;52.562;5.642;2023-10-08T04:49:19;0.10;;;0.03;;
81950;SDS011;71452;52.562;5.642;2023-10-08T04:51:58;0.45;;;0.10;;
81950;SDS011;71452;52.562;5.642;2023-10-08T04:54:30;0.22;;;0.10;;
81950;SDS011;71452;52.562;5.642;2023-10-08T04:57:06;0.10;;;0.00;;
81950;SDS011;71452;52.562;5.642;2023-10-08T04:59:43;1.05;;;0.20;;
81950;SDS011;71452;52.562;5.642;2023-10-08T05:02:16;2.08;;;0.10;;
81950;SDS011;71452;52.562;5.642;2023-10-08T05:04:59;0.20;;;0.10;;
81950;SDS011;71452;52.562;5.642;2023-10-08T05:07:50;0.40;;;0.10;;
81950;SDS011;71452;52.562;5.642;2023-10-08T05:10:45;0.10;;;0.08;;
81950;SDS011;71452;52.562;5.642;2023-10-08T05:13:26;0.22;;;0.13;;
81950;SDS011;71452;52.562;5.642;2023-10-08T05:16:13;0.10;;;0.10;;
81950;SDS011;71452;52.562;5.642;2023-10-08T05:19:01;0.00;;;0.00;;
81950;SDS011;71452;52.562;5.642;2023-10-08T05:21:50;0.52;;;0.00;;
81950;SDS011;71452;52.562;5.642;2023-10-08T05:24:31;0.30;;;0.10;;
81950;SDS011;71452;52.562;5.642;2023-10-08T05:27:04;0.60;;;0.03;;
81950;SDS011;71452;52.562;5.642;2023-10-08T05:29:46;0.10;;;0.10;;
81950;SDS011;71452;52.562;5.642;2023-10-08T05:32:43;0.15;;;0.05;;
81950;SDS011;71452;52.562;5.642;2023-10-08T05:35:31;2.97;;;0.10;;
81950;SDS011;71452;52.562;5.642;2023-10-08T05:38:20;1.33;;;0.03;;
81950;SDS011;71452;52.562;5.642;2023-10-08T05:40:48;2.15;;;0.40;;
81950;SDS011;71452;52.562;5.642;2023-10-08T05:43:31;0.52;;;0.10;;
81950;SDS011;71452;52.562;5.642;2023-10-08T05:46:13;1.17;;;0.10;;
81950;SDS011;71452;52.562;5.642;2023-10-08T05:48:59;0.20;;;0.10;;
81950;SDS011;71452;52.562;5.642;2023-10-08T05:51:42;2.20;;;0.13;;
81950;SDS011;71452;52.562;5.642;2023-10-08T05:54:22;0.10;;;0.10;;
81950;SDS011;71452;52.562;5.642;2023-10-08T05:57:02;1.65;;;0.20;;
81950;SDS011;71452;52.562;5.642;2023-10-08T05:59:40;1.30;;;0.10;;
81950;SDS011;71452;52.562;5.642;2023-10-08T06:02:41;0.20;;;0.10;;
81950;SDS011;71452;52.562;5.642;2023-10-08T06:05:28;0.20;;;0.10;;
81950;SDS011;71452;52.562;5.642;2023-10-08T06:07:58;0.35;;;0.22;;
81950;SDS011;71452;52.562;5.642;2023-10-08T06:10:37;0.55;;;0.30;;
81950;SDS011;71452;52.562;5.642;2023-10-08T06:13:22;0.00;;;0.00;;
81950;SDS011;71452;52.562;5.642;2023-10-08T06:16:21;2.55;;;0.20;;
81950;SDS011;71452;52.562;5.642;2023-10-08T06:18:57;2.08;;;0.32;;
81950;SDS011;71452;52.562;5.642;2023-10-08T06:21:28;0.00;;;0.00;;
81950;SDS011;71452;52.562;5.642;2023-10-08T06:23:57;1.33;;;0.05;;
81950;SDS011;71452;52.562;5.642;2023-10-08T06:26:27;2.22;;;0.13;;
81950;SDS011;71452;52.562;5.642;2023-10-08T06:28:59;3.22;;;0.30;;
81950;SDS011;71452;52.562;5.642;2023-10-08T06:31:44;0.38;;;0.10;;
81950;SDS011;71452;52.562;5.642;2023-10-08T06:34:17;0.30;;;0.17;;
81950;SDS011;71452;52.562;5.642;2023-10-08T06:36:52;0.20;;;0.20;;
81950;SDS011;71452;52.562;5.642;2023-10-08T06:39:21;1.00;;;0.10;;
81950;SDS011;71452;52.562;5.642;2023-10-08T06:41:58;0.85;;;0.10;;
81950;SDS011;71452;52.562;5.642;2023-10-08T06:44:29;0.25;;;0.10;;
81950;SDS011;71452;52.562;5.642;2023-10-08T06:46:58;1.27;;;0.20;;
81950;SDS011;71452;52.562;5.642;2023-10-08T06:49:27;1.58;;;0.22;;
81950;SDS011;71452;52.562;5.642;2023-10-08T06:51:59;1.58;;;0.30;;
81950;SDS011;71452;52.562;5.642;2023-10-08T06:54:30;1.48;;;0.40;;
81950;SDS011;71452;52.562;5.642;2023-10-08T06:57:00;2.60;;;0.20;;
81950;SDS011;71452;52.562;5.642;2023-10-08T06:59:30;0.68;;;0.30;;
81950;SDS011;71452;52.562;5.642;2023-10-08T07:02:00;0.30;;;0.20;;
81950;SDS011;71452;52.562;5.642;2023-10-08T07:04:29;2.38;;;0.45;;
81950;SDS011;71452;52.562;5.642;2023-10-08T07:07:00;0.30;;;0.20;;
81950;SDS011;71452;52.562;5.642;2023-10-08T07:09:34;1.38;;;0.30;;
81950;SDS011;71452;52.562;5.642;2023-10-08T07:12:04;1.13;;;0.28;;
81950;SDS011;71452;52.562;5.642;2023-10-08T07:14:39;0.30;;;0.10;;
81950;SDS011;71452;52.562;5.642;2023-10-08T07:17:09;0.70;;;0.30;;
81950;SDS011;71452;52.562;5.642;2023-10-08T07:19:45;0.17;;;0.15;;
81950;SDS011;71452;52.562;5.642;2023-10-08T07:22:19;0.47;;;0.15;;
81950;SDS011;71452;52.562;5.642;2023-10-08T07:24:54;1.10;;;0.22;;
81950;SDS011;71452;52.562;5.642;2023-10-08T07:27:25;1.20;;;0.70;;
81950;SDS011;71452;52.562;5.642;2023-10-08T07:30:03;1.58;;;0.22;;
81950;SDS011;71452;52.562;5.642;2023-10-08T07:32:35;3.75;;;0.40;;
81950;SDS011;71452;52.562;5.642;2023-10-08T07:35:05;0.95;;;0.68;;
81950;SDS011;71452;52.562;5.642;2023-10-08T07:37:51;1.63;;;0.40;;
81950;SDS011;71452;52.562;5.642;2023-10-08T07:40:21;2.10;;;1.30;;
81950;SDS011;71452;52.562;5.642;2023-10-08T07:42:54;2.25;;;0.40;;
81950;SDS011;71452;52.562;5.642;2023-10-08T07:45:25;4.68;;;0.82;;
81950;SDS011;71452;52.562;5.642;2023-10-08T07:47:54;2.00;;;0.35;;
81950;SDS011;71452;52.562;5.642;2023-10-08T07:50:24;0.82;;;0.30;;
81950;SDS011;71452;52.562;5.642;2023-10-08T07:52:57;2.47;;;0.57;;
81950;SDS011;71452;52.562;5.642;2023-10-08T07:55:26;0.93;;;0.25;;
81950;SDS011;71452;52.562;5.642;2023-10-08T07:57:58;1.85;;;0.50;;
81950;SDS011;71452;52.562;5.642;2023-10-08T08:00:29;5.20;;;0.55;;
81950;SDS011;71452;52.562;5.642;2023-10-08T08:03:04;1.70;;;0.35;;
81950;SDS011;71452;52.562;5.642;2023-10-08T08:05:33;1.17;;;0.20;;
81950;SDS011;71452;52.562;5.642;2023-10-08T08:08:06;1.70;;;0.50;;
81950;SDS011;71452;52.562;5.642;2023-10-08T08:10:35;0.90;;;0.30;;
81950;SDS011;71452;52.562;5.642;2023-10-08T08:13:04;0.73;;;0.40;;
81950;SDS011;71452;52.562;5.642;2023-10-08T08:15:35;2.40;;;0.20;;
81950;SDS011;71452;52.562;5.642;2023-10-08T08:18:09;6.35;;;0.73;;
81950;SDS011;71452;52.562;5.642;2023-10-08T08:23:19;0.85;;;0.40;;
81950;SDS011;71452;52.562;5.642;2023-10-08T08:25:49;4.35;;;0.55;;
81950;SDS011;71452;52.562;5.642;2023-10-08T08:28:37;2.22;;;0.40;;
81950;SDS011;71452;52.562;5.642;2023-10-08T08:31:07;0.95;;;0.43;;
81950;SDS011;71452;52.562;5.642;2023-10-08T08:33:39;1.55;;;0.35;;
81950;SDS011;71452;52.562;5.642;2023-10-08T08:36:22;2.13;;;0.30;;
81950;SDS011;71452;52.562;5.642;2023-10-08T08:38:54;0.40;;;0.10;;
81950;SDS011;71452;52.562;5.642;2023-10-08T08:41:24;1.77;;;0.40;;
81950;SDS011;71452;52.562;5.642;2023-10-08T08:43:53;0.88;;;0.65;;
81950;SDS011;71452;52.562;5.642;2023-10-08T08:46:27;0.65;;;0.35;;
81950;SDS011;71452;52.562;5.642;2023-10-08T08:49:01;2.03;;;0.32;;
81950;SDS011;71452;52.562;5.642;2023-10-08T08:51:33;0.22;;;0.10;;
81950;SDS011;71452;52.562;5.642;2023-10-08T08:54:06;2.60;;;0.25;;
81950;SDS011;71452;52.562;5.642;2023-10-08T08:56:36;0.90;;;0.28;;
81950;SDS011;71452;52.562;5.642;2023-10-08T08:59:09;0.50;;;0.15;;
81950;SDS011;71452;52.562;5.642;2023-10-08T09:01:39;0.95;;;0.32;;
81950;SDS011;71452;52.562;5.642;2023-10-08T09:04:10;2.03;;;0.35;;
81950;SDS011;71452;52.562;5.642;2023-10-08T09:06:42;1.05;;;0.50;;
81950;SDS011;71452;52.562;5.642;2023-10-08T09:09:14;2.20;;;0.20;;
81950;SDS011;71452;52.562;5.642;2023-10-08T09:11:47;3.45;;;0.70;;
81950;SDS011;71452;52.562;5.642;2023-10-08T09:14:17;3.22;;;0.57;;
81950;SDS011;71452;52.562;5.642;2023-10-08T09:16:49;1.88;;;0.32;;
81950;SDS011;71452;52.562;5.642;2023-10-08T09:19:19;0.40;;;0.05;;
81950;SDS011;71452;52.562;5.642;2023-10-08T09:22:00;2.30;;;0.30;;
81950;SDS011;71452;52.562;5.642;2023-10-08T09:24:34;3.40;;;0.47;;
81950;SDS011;71452;52.562;5.642;2023-10-08T09:27:06;1.23;;;0.30;;
81950;SDS011;71452;52.562;5.642;2023-10-08T09:29:39;1.25;;;0.30;;
81950;SDS011;71452;52.562;5.642;2023-10-08T09:32:10;2.50;;;0.30;;
81950;SDS011;71452;52.562;5.642;2023-10-08T09:34:48;3.80;;;0.50;;
81950;SDS011;71452;52.562;5.642;2023-10-08T09:37:18;2.13;;;0.30;;
81950;SDS011;71452;52.562;5.642;2023-10-08T09:39:50;0.45;;;0.22;;
81950;SDS011;71452;52.562;5.642;2023-10-08T09:42:22;1.70;;;0.40;;
81950;SDS011;71452;52.562;5.642;2023-10-08T09:44:51;1.85;;;0.40;;
81950;SDS011;71452;52.562;5.642;2023-10-08T09:47:20;1.38;;;0.22;;
81950;SDS011;71452;52.562;5.642;2023-10-08T09:49:53;2.33;;;0.10;;
81950;SDS011;71452;52.562;5.642;2023-10-08T09:52:27;2.85;;;0.25;;
81950;SDS011;71452;52.562;5.642;2023-10-08T09:55:05;2.72;;;0.20;;
81950;SDS011;71452;52.562;5.642;2023-10-08T09:57:38;0.93;;;0.20;;
81950;SDS011;71452;52.562;5.642;2023-10-08T10:00:07;0.75;;;0.20;;
81950;SDS011;71452;52.562;5.642;2023-10-08T10:02:40;2.28;;;0.38;;
81950;SDS011;71452;52.562;5.642;2023-10-08T10:05:10;1.75;;;0.35;;
81950;SDS011;71452;52.562;5.642;2023-10-08T10:07:40;3.65;;;0.13;;
81950;SDS011;71452;52.562;5.642;2023-10-08T10:13:05;1.00;;;0.30;;
81950;SDS011;71452;52.562;5.642;2023-10-08T10:15:38;0.22;;;0.03;;
81950;SDS011;71452;52.562;5.642;2023-10-08T10:18:13;1.98;;;0.30;;
81950;SDS011;71452;52.562;5.642;2023-10-08T10:20:45;2.90;;;0.57;;
81950;SDS011;71452;52.562;5.642;2023-10-08T10:26:20;0.30;;;0.20;;
81950;SDS011;71452;52.562;5.642;2023-10-08T10:31:58;1.63;;;0.25;;
81950;SDS011;71452;52.562;5.642;2023-10-08T10:34:30;4.57;;;0.70;;
81950;SDS011;71452;52.562;5.642;2023-10-08T10:37:00;2.45;;;0.63;;
81950;SDS011;71452;52.562;5.642;2023-10-08T10:39:34;1.00;;;0.20;;
81950;SDS011;71452;52.562;5.642;2023-10-08T10:42:05;2.72;;;0.20;;
81950;SDS011;71452;52.562;5.642;2023-10-08T10:44:48;3.15;;;0.45;;
81950;SDS011;71452;52.562;5.642;2023-10-08T10:50:08;2.13;;;0.22;;
81950;SDS011;71452;52.562;5.642;2023-10-08T10:52:57;1.35;;;0.85;;
81950;SDS011;71452;52.562;5.642;2023-10-08T10:55:35;1.55;;;0.20;;
81950;SDS011;71452;52.562;5.642;2023-10-08T10:58:03;3.63;;;0.43;;
81950;SDS011;71452;52.562;5.642;2023-10-08T11:00:41;4.82;;;0.45;;
81950;SDS011;71452;52.562;5.642;2023-10-08T11:03:22;1.08;;;0.40;;
81950;SDS011;71452;52.562;5.642;2023-10-08T11:05:56;2.85;;;0.30;;
81950;SDS011;71452;52.562;5.642;2023-10-08T11:08:31;0.20;;;0.20;;
81950;SDS011;71452;52.562;5.642;2023-10-08T11:11:02;1.27;;;0.15;;
81950;SDS011;71452;52.562;5.642;2023-10-08T11:13:35;2.85;;;0.20;;
81950;SDS011;71452;52.562;5.642;2023-10-08T11:16:10;0.93;;;0.20;;
81950;SDS011;71452;52.562;5.642;2023-10-08T11:18:43;4.00;;;0.50;;
81950;SDS011;71452;52.562;5.642;2023-10-08T11:21:15;2.47;;;0.40;;
81950;SDS011;71452;52.562;5.642;2023-10-08T11:23:49;1.00;;;0.47;;
81950;SDS011;71452;52.562;5.642;2023-10-08T11:26:25;1.45;;;0.30;;
81950;SDS011;71452;52.562;5.642;2023-10-08T11:29:05;1.35;;;0.20;;
81950;SDS011;71452;52.562;5.642;2023-10-08T11:31:42;4.88;;;0.52;;
81950;SDS011;71452;52.562;5.642;2023-10-08T11:34:11;4.50;;;0.20;;
81950;SDS011;71452;52.562;5.642;2023-10-08T11:36:45;0.70;;;0.32;;
81950;SDS011;71452;52.562;5.642;2023-10-08T11:39:21;1.35;;;0.30;;
81950;SDS011;71452;52.562;5.642;2023-10-08T11:41:56;0.55;;;0.20;;
81950;SDS011;71452;52.562;5.642;2023-10-08T11:44:29;0.95;;;0.20;;
81950;SDS011;71452;52.562;5.642;2023-10-08T11:47:04;4.53;;;0.95;;
81950;SDS011;71452;52.562;5.642;2023-10-08T11:49:47;1.05;;;0.20;;
81950;SDS011;71452;52.562;5.642;2023-10-08T11:52:16;2.38;;;0.68;;
81950;SDS011;71452;52.562;5.642;2023-10-08T11:54:47;4.75;;;0.22;;
81950;SDS011;71452;52.562;5.642;2023-10-08T11:57:18;2.22;;;0.40;;
81950;SDS011;71452;52.562;5.642;2023-10-08T11:59:47;2.30;;;0.52;;
81950;SDS011;71452;52.562;5.642;2023-10-08T12:02:22;4.22;;;0.47;;
81950;SDS011;71452;52.562;5.642;2023-10-08T12:04:52;4.40;;;0.40;;
81950;SDS011;71452;52.562;5.642;2023-10-08T12:07:23;0.25;;;0.08;;
81950;SDS011;71452;52.562;5.642;2023-10-08T12:09:53;1.95;;;0.13;;
81950;SDS011;71452;52.562;5.642;2023-10-08T12:12:22;3.95;;;1.30;;
81950;SDS011;71452;52.562;5.642;2023-10-08T12:14:53;4.25;;;0.43;;
81950;SDS011;71452;52.562;5.642;2023-10-08T12:17:25;1.25;;;0.20;;
81950;SDS011;71452;52.562;5.642;2023-10-08T12:20:05;7.55;;;0.60;;
81950;SDS011;71452;52.562;5.642;2023-10-08T12:22:48;1.35;;;0.20;;
81950;SDS011;71452;52.562;5.642;2023-10-08T12:25:17;0.98;;;0.22;;
81950;SDS011;71452;52.562;5.642;2023-10-08T12:27:48;2.90;;;0.20;;
81950;SDS011;71452;52.562;5.642;2023-10-08T12:30:17;1.23;;;0.20;;
81950;SDS011;71452;52.562;5.642;2023-10-08T12:32:58;1.00;;;0.28;;
81950;SDS011;71452;52.562;5.642;2023-10-08T12:35:28;2.33;;;0.40;;
81950;SDS011;71452;52.562;5.642;2023-10-08T12:37:57;0.22;;;0.20;;
81950;SDS011;71452;52.562;5.642;2023-10-08T12:40:26;1.38;;;0.22;;
81950;SDS011;71452;52.562;5.642;2023-10-08T12:43:08;3.10;;;0.20;;
81950;SDS011;71452;52.562;5.642;2023-10-08T12:45:37;0.35;;;0.20;;
81950;SDS011;71452;52.562;5.642;2023-10-08T12:48:09;1.52;;;0.40;;
81950;SDS011;71452;52.562;5.642;2023-10-08T12:50:39;0.80;;;0.20;;
81950;SDS011;71452;52.562;5.642;2023-10-08T12:53:10;1.02;;;0.20;;
81950;SDS011;71452;52.562;5.642;2023-10-08T12:55:41;0.20;;;0.10;;
81950;SDS011;71452;52.562;5.642;2023-10-08T12:58:11;1.55;;;0.28;;
81950;SDS011;71452;52.562;5.642;2023-10-08T13:00:42;1.85;;;0.30;;
81950;SDS011;71452;52.562;5.642;2023-10-08T13:05:48;2.08;;;0.20;;
81950;SDS011;71452;52.562;5.642;2023-10-08T13:08:18;2.70;;;0.30;;
81950;SDS011;71452;52.562;5.642;2023-10-08T13:10:47;4.20;;;0.32;;
81950;SDS011;71452;52.562;5.642;2023-10-08T13:13:17;0.47;;;0.20;;
81950;SDS011;71452;52.562;5.642;2023-10-08T13:15:47;1.45;;;0.45;;
81950;SDS011;71452;52.562;5.642;2023-10-08T13:18:21;1.77;;;0.50;;
81950;SDS011;71452;52.562;5.642;2023-10-08T13:20:51;1.80;;;0.45;;
81950;SDS011;71452;52.562;5.642;2023-10-08T13:23:20;0.52;;;0.47;;
81950;SDS011;71452;52.562;5.642;2023-10-08T13:25:49;1.83;;;0.17;;
81950;SDS011;71452;52.562;5.642;2023-10-08T13:28:20;0.70;;;0.40;;
81950;SDS011;71452;52.562;5.642;2023-10-08T13:30:49;1.13;;;0.30;;
81950;SDS011;71452;52.562;5.642;2023-10-08T13:33:24;2.45;;;0.30;;
81950;SDS011;71452;52.562;5.642;2023-10-08T13:35:54;4.63;;;0.45;;
81950;SDS011;71452;52.562;5.642;2023-10-08T13:38:23;0.95;;;0.32;;
81950;SDS011;71452;52.562;5.642;2023-10-08T13:40:53;0.68;;;0.20;;
81950;SDS011;71452;52.562;5.642;2023-10-08T13:43:32;2.08;;;0.25;;
81950;SDS011;71452;52.562;5.642;2023-10-08T13:46:03;1.45;;;0.77;;
81950;SDS011;71452;52.562;5.642;2023-10-08T13:48:41;0.85;;;0.30;;
81950;SDS011;71452;52.562;5.642;2023-10-08T13:51:14;1.67;;;0.32;;
81950;SDS011;71452;52.562;5.642;2023-10-08T13:53:47;1.02;;;0.35;;
81950;SDS011;71452;52.562;5.642;2023-10-08T13:56:18;2.92;;;0.30;;
81950;SDS011;71452;52.562;5.642;2023-10-08T13:58:52;0.60;;;0.40;;
81950;SDS011;71452;52.562;5.642;2023-10-08T14:01:29;0.90;;;0.30;;
81950;SDS011;71452;52.562;5.642;2023-10-08T14:04:02;2.60;;;0.40;;
81950;SDS011;71452;52.562;5.642;2023-10-08T14:06:34;2.55;;;0.40;;
81950;SDS011;71452;52.562;5.642;2023-10-08T14:09:03;2.55;;;0.65;;
81950;SDS011;71452;52.562;5.642;2023-10-08T14:11:38;1.17;;;0.28;;
81950;SDS011;71452;52.562;5.642;2023-10-08T14:14:07;2.70;;;0.30;;
81950;SDS011;71452;52.562;5.642;2023-10-08T14:16:38;3.20;;;0.40;;
81950;SDS011;71452;52.562;5.642;2023-10-08T14:19:12;1.35;;;0.30;;
81950;SDS011;71452;52.562;5.642;2023-10-08T14:21:42;1.60;;;0.40;;
81950;SDS011;71452;52.562;5.642;2023-10-08T14:24:20;1.35;;;0.20;;
81950;SDS011;71452;52.562;5.642;2023-10-08T14:26:52;1.40;;;0.30;;
81950;SDS011;71452;52.562;5.642;2023-10-08T14:29:24;2.50;;;0.47;;
81950;SDS011;71452;52.562;5.642;2023-10-08T14:31:53;0.52;;;0.20;;
81950;SDS011;71452;52.562;5.642;2023-10-08T14:34:27;1.88;;;0.30;;
81950;SDS011;71452;52.562;5.642;2023-10-08T14:37:12;0.98;;;0.50;;
81950;SDS011;71452;52.562;5.642;2023-10-08T14:39:54;0.70;;;0.40;;
81950;SDS011;71452;52.562;5.642;2023-10-08T14:42:35;2.30;;;0.30;;
81950;SDS011;71452;52.562;5.642;2023-10-08T14:45:17;0.40;;;0.22;;
81950;SDS011;71452;52.562;5.642;2023-10-08T14:47:48;1.50;;;0.20;;
81950;SDS011;71452;52.562;5.642;2023-10-08T14:50:19;3.80;;;0.55;;
81950;SDS011;71452;52.562;5.642;2023-10-08T14:52:49;1.85;;;0.57;;
81950;SDS011;71452;52.562;5.642;2023-10-08T14:55:18;0.77;;;0.30;;
81950;SDS011;71452;52.562;5.642;2023-10-08T14:57:48;3.17;;;0.40;;
81950;SDS011;71452;52.562;5.642;2023-10-08T15:00:19;0.73;;;0.10;;
81950;SDS011;71452;52.562;5.642;2023-10-08T15:02:50;1.70;;;0.32;;
81950;SDS011;71452;52.562;5.642;2023-10-08T15:05:23;2.20;;;0.32;;
81950;SDS011;71452;52.562;5.642;2023-10-08T15:07:52;2.92;;;0.60;;
81950;SDS011;71452;52.562;5.642;2023-10-08T15:10:21;2.47;;;0.40;;
81950;SDS011;71452;52.562;5.642;2023-10-08T15:12:51;2.95;;;0.85;;
81950;SDS011;71452;52.562;5.642;2023-10-08T15:15:21;4.13;;;0.50;;
81950;SDS011;71452;52.562;5.642;2023-10-08T15:17:50;0.98;;;0.25;;
81950;SDS011;71452;52.562;5.642;2023-10-08T15:20:20;0.80;;;0.32;;
81950;SDS011;71452;52.562;5.642;2023-10-08T15:22:52;0.70;;;0.50;;
81950;SDS011;71452;52.562;5.642;2023-10-08T15:25:21;0.45;;;0.25;;
81950;SDS011;71452;52.562;5.642;2023-10-08T15:27:50;6.30;;;2.88;;
81950;SDS011;71452;52.562;5.642;2023-10-08T15:30:19;1.83;;;1.10;;
81950;SDS011;71452;52.562;5.642;2023-10-08T15:32:50;1.92;;;1.30;;
81950;SDS011;71452;52.562;5.642;2023-10-08T15:35:20;1.83;;;0.40;;
81950;SDS011;71452;52.562;5.642;2023-10-08T15:37:52;0.57;;;0.20;;
81950;SDS011;71452;52.562;5.642;2023-10-08T15:40:22;1.65;;;0.43;;
81950;SDS011;71452;52.562;5.642;2023-10-08T15:42:51;1.45;;;0.40;;
81950;SDS011;71452;52.562;5.642;2023-10-08T15:45:23;1.80;;;0.20;;